createdAt,value
2023-10-06T00:00:35.790Z,3.03
2023-10-06T00:01:57.967Z,3.60
2023-10-06T00:03:00.295Z,3.83
2023-10-06T00:04:08.508Z,3.03
2023-10-06T00:05:12.692Z,3.38
2023-10-06T00:06:23.630Z,2.80
2023-10-06T00:07:26.190Z,3.13
2023-10-06T00:08:34.399Z,3.20
2023-10-06T00:09:36.968Z,2.80
2023-10-06T00:10:45.746Z,3.13
2023-10-06T00:11:51.744Z,3.10
2023-10-06T00:13:00.458Z,3.03
2023-10-06T00:14:02.982Z,2.88
2023-10-06T00:15:09.203Z,2.90
2023-10-06T00:16:11.444Z,3.40
2023-10-06T00:17:18.859Z,3.00
2023-10-06T00:18:21.594Z,3.53
2023-10-06T00:19:33.515Z,3.78
2023-10-06T00:20:51.321Z,3.00
2023-10-06T00:22:12.836Z,3.30
2023-10-06T00:23:16.328Z,3.40
2023-10-06T00:24:18.505Z,3.03
2023-10-06T00:25:25.760Z,3.25
2023-10-06T00:26:27.915Z,3.40
2023-10-06T00:27:32.866Z,3.13
2023-10-06T00:28:34.996Z,3.17
2023-10-06T00:29:38.883Z,2.95
2023-10-06T00:30:40.999Z,3.05
2023-10-06T00:31:43.650Z,3.28
2023-10-06T00:32:45.728Z,2.78
2023-10-06T00:33:47.774Z,3.00
2023-10-06T00:34:51.411Z,2.75
2023-10-06T00:35:53.829Z,2.95
2023-10-06T00:36:57.458Z,3.17
2023-10-06T00:38:14.005Z,3.38
2023-10-06T00:39:18.590Z,2.97
2023-10-06T00:40:21.371Z,3.20
2023-10-06T00:41:23.546Z,2.95
2023-10-06T00:42:28.109Z,3.15
2023-10-06T00:43:38.317Z,2.97
2023-10-06T00:44:41.890Z,2.72
2023-10-06T00:45:48.717Z,2.63
2023-10-06T00:46:51.132Z,2.70
2023-10-06T00:47:57.586Z,3.00
2023-10-06T00:49:05.781Z,2.70
2023-10-06T00:50:11.728Z,2.65
2023-10-06T00:51:21.109Z,2.78
2023-10-06T00:52:23.476Z,2.88
2023-10-06T00:53:33.073Z,2.60
2023-10-06T00:54:35.589Z,2.80
2023-10-06T00:55:42.260Z,3.20
2023-10-06T00:56:44.773Z,3.00
2023-10-06T00:57:54.296Z,2.70
2023-10-06T00:58:56.811Z,3.22
2023-10-06T01:00:00.028Z,3.08
2023-10-06T01:01:06.903Z,2.75
2023-10-06T01:02:12.866Z,3.20
2023-10-06T01:03:18.031Z,3.08
2023-10-06T01:04:26.389Z,2.83
2023-10-06T01:05:32.501Z,2.90
2023-10-06T01:06:39.838Z,2.97
2023-10-06T01:07:42.104Z,2.97
2023-10-06T01:08:49.607Z,2.67
2023-10-06T01:09:58.966Z,2.67
2023-10-06T01:11:12.892Z,2.72
2023-10-06T01:12:19.422Z,3.05
2023-10-06T01:13:22.177Z,2.60
2023-10-06T01:15:37.845Z,2.63
2023-10-06T01:16:39.982Z,2.80
2023-10-06T01:17:42.084Z,3.15
2023-10-06T01:18:44.301Z,2.42
2023-10-06T01:19:49.971Z,2.63
2023-10-06T01:20:52.212Z,3.13
2023-10-06T01:21:55.679Z,2.67
2023-10-06T01:22:57.950Z,2.60
2023-10-06T01:24:01.992Z,3.00
2023-10-06T01:25:12.311Z,2.38
2023-10-06T01:26:14.683Z,2.92
2023-10-06T01:27:16.838Z,2.78
2023-10-06T01:28:20.012Z,2.30
2023-10-06T01:29:30.244Z,2.50
2023-10-06T01:30:32.333Z,2.22
2023-10-06T01:31:38.857Z,2.47
2023-10-06T01:32:50.652Z,2.30
2023-10-06T01:33:52.763Z,2.85
2023-10-06T01:34:54.796Z,2.70
2023-10-06T01:35:57.003Z,2.85
2023-10-06T01:36:59.322Z,3.03
2023-10-06T01:38:21.361Z,2.88
2023-10-06T01:39:24.676Z,2.63
2023-10-06T01:40:26.743Z,3.03
2023-10-06T01:41:30.004Z,2.60
2023-10-06T01:42:32.108Z,2.90
2023-10-06T01:43:34.695Z,2.88
2023-10-06T01:44:37.241Z,3.03
2023-10-06T01:46:57.102Z,2.75
2023-10-06T01:48:19.245Z,2.60
2023-10-06T01:49:25.185Z,2.90
2023-10-06T01:50:28.800Z,2.58
2023-10-06T01:51:39.985Z,2.55
2023-10-06T01:52:42.051Z,3.10
2023-10-06T01:53:44.434Z,2.72
2023-10-06T01:54:47.656Z,3.08
2023-10-06T01:56:55.431Z,2.63
2023-10-06T01:57:58.476Z,2.95
2023-10-06T01:59:00.859Z,2.70
2023-10-06T02:00:04.838Z,2.80
2023-10-06T02:01:07.634Z,2.60
2023-10-06T02:02:14.701Z,2.75
2023-10-06T02:03:23.297Z,2.67
2023-10-06T02:04:26.905Z,2.50
2023-10-06T02:05:29.092Z,2.40
2023-10-06T02:06:31.157Z,3.10
2023-10-06T02:07:37.052Z,3.15
2023-10-06T02:08:39.921Z,2.95
2023-10-06T02:09:42.191Z,2.83
2023-10-06T02:10:44.671Z,2.38
2023-10-06T02:11:48.223Z,3.22
2023-10-06T02:12:50.387Z,2.53
2023-10-06T02:13:52.398Z,3.13
2023-10-06T02:14:54.564Z,3.13
2023-10-06T02:16:00.436Z,3.40
2023-10-06T02:17:13.453Z,2.95
2023-10-06T02:18:15.699Z,2.78
2023-10-06T02:19:17.980Z,2.63
2023-10-06T02:21:30.964Z,2.42
2023-10-06T02:22:33.073Z,3.40
2023-10-06T02:23:38.859Z,3.40
2023-10-06T02:24:41.235Z,2.85
2023-10-06T02:25:43.351Z,2.38
2023-10-06T02:26:52.020Z,2.60
2023-10-06T02:27:54.652Z,2.92
2023-10-06T02:29:59.358Z,3.00
2023-10-06T02:31:06.989Z,2.50
2023-10-06T02:32:09.581Z,3.03
2023-10-06T02:33:12.757Z,2.85
2023-10-06T02:34:19.781Z,3.35
2023-10-06T02:35:21.957Z,2.35
2023-10-06T02:36:24.047Z,2.67
2023-10-06T02:37:27.089Z,3.65
2023-10-06T02:38:39.461Z,2.90
2023-10-06T02:39:44.916Z,2.72
2023-10-06T02:40:47.316Z,2.60
2023-10-06T02:41:53.956Z,2.90
2023-10-06T02:42:57.794Z,2.75
2023-10-06T02:44:09.944Z,2.60
2023-10-06T02:45:22.135Z,2.95
2023-10-06T02:46:27.196Z,2.75
2023-10-06T02:47:30.763Z,3.10
2023-10-06T02:48:34.946Z,3.00
2023-10-06T02:49:39.072Z,2.60
2023-10-06T02:50:51.109Z,3.00
2023-10-06T02:51:55.466Z,2.83
2023-10-06T02:52:57.497Z,3.22
2023-10-06T02:54:15.019Z,3.25
2023-10-06T02:55:20.897Z,3.75
2023-10-06T02:56:30.033Z,3.00
2023-10-06T02:57:40.274Z,3.35
2023-10-06T02:58:43.505Z,3.22
2023-10-06T02:59:46.159Z,2.75
2023-10-06T03:00:51.716Z,3.33
2023-10-06T03:01:59.140Z,3.50
2023-10-06T03:03:04.791Z,3.15
2023-10-06T03:04:08.535Z,2.60
2023-10-06T03:05:14.120Z,2.53
2023-10-06T03:06:18.707Z,3.45
2023-10-06T03:07:22.303Z,3.17
2023-10-06T03:08:31.412Z,2.58
2023-10-06T03:09:39.798Z,3.20
2023-10-06T03:10:46.463Z,3.03
2023-10-06T03:11:51.778Z,2.97
2023-10-06T03:12:54.914Z,3.25
2023-10-06T03:15:02.632Z,2.92
2023-10-06T03:16:12.352Z,2.80
2023-10-06T03:17:15.352Z,3.67
2023-10-06T03:18:18.803Z,2.60
2023-10-06T03:19:26.476Z,3.33
2023-10-06T03:20:41.972Z,3.05
2023-10-06T03:21:47.080Z,2.80
2023-10-06T03:22:53.532Z,3.10
2023-10-06T03:23:59.925Z,2.63
2023-10-06T03:25:02.122Z,2.58
2023-10-06T03:26:05.929Z,2.67
2023-10-06T03:27:14.118Z,2.90
2023-10-06T03:28:19.213Z,2.63
2023-10-06T03:29:35.007Z,3.05
2023-10-06T03:30:37.382Z,2.55
2023-10-06T03:31:48.409Z,2.72
2023-10-06T03:32:50.831Z,2.95
2023-10-06T03:33:56.304Z,2.90
2023-10-06T03:35:01.095Z,3.35
2023-10-06T03:36:03.167Z,2.47
2023-10-06T03:37:06.411Z,3.13
2023-10-06T03:38:20.884Z,3.33
2023-10-06T03:39:29.342Z,2.70
2023-10-06T03:40:44.899Z,3.38
2023-10-06T03:41:48.135Z,3.25
2023-10-06T03:42:50.859Z,3.78
2023-10-06T03:43:56.169Z,5.68
2023-10-06T03:45:09.125Z,6.72
2023-10-06T03:46:15.757Z,5.43
2023-10-06T03:47:17.924Z,4.88
2023-10-06T03:48:21.027Z,3.67
2023-10-06T03:49:23.174Z,3.65
2023-10-06T03:50:26.061Z,3.63
2023-10-06T03:51:30.576Z,4.22
2023-10-06T03:52:35.416Z,3.47
2023-10-06T03:53:37.425Z,3.20
2023-10-06T03:54:41.016Z,4.43
2023-10-06T03:55:46.414Z,3.70
2023-10-06T03:56:51.326Z,3.40
2023-10-06T03:57:53.941Z,3.10
2023-10-06T03:58:55.949Z,3.35
2023-10-06T03:59:59.533Z,3.30
2023-10-06T04:01:09.722Z,3.22
2023-10-06T04:02:11.808Z,3.38
2023-10-06T04:03:15.317Z,2.90
2023-10-06T04:04:22.016Z,3.20
2023-10-06T04:05:24.423Z,3.03
2023-10-06T04:06:29.934Z,2.95
2023-10-06T04:07:32.051Z,3.22
2023-10-06T04:08:34.213Z,2.45
2023-10-06T04:09:37.116Z,3.13
2023-10-06T04:10:42.360Z,2.75
2023-10-06T04:11:44.453Z,3.35
2023-10-06T04:12:47.123Z,2.95
2023-10-06T04:13:50.244Z,2.60
2023-10-06T04:14:52.666Z,3.10
2023-10-06T04:15:55.116Z,3.33
2023-10-06T04:16:58.353Z,3.00
2023-10-06T04:18:00.824Z,3.97
2023-10-06T04:19:04.767Z,2.85
2023-10-06T04:20:14.393Z,3.75
2023-10-06T04:21:19.732Z,3.13
2023-10-06T04:22:22.008Z,3.33
2023-10-06T04:23:26.780Z,3.80
2023-10-06T04:24:28.809Z,3.13
2023-10-06T04:25:30.884Z,2.30
2023-10-06T04:26:33.473Z,3.28
2023-10-06T04:27:36.382Z,3.17
2023-10-06T04:28:39.219Z,3.67
2023-10-06T04:30:47.804Z,3.05
2023-10-06T04:31:50.469Z,3.03
2023-10-06T04:32:54.697Z,3.08
2023-10-06T04:33:56.972Z,3.20
2023-10-06T04:34:59.397Z,3.00
2023-10-06T04:36:08.737Z,3.28
2023-10-06T04:37:11.230Z,2.58
2023-10-06T04:38:14.106Z,3.10
2023-10-06T04:39:18.100Z,2.88
2023-10-06T04:40:23.133Z,3.53
2023-10-06T04:41:25.356Z,2.85
2023-10-06T04:42:27.413Z,3.00
2023-10-06T04:43:30.013Z,2.97
2023-10-06T04:44:32.312Z,2.88
2023-10-06T04:45:34.961Z,3.65
2023-10-06T04:46:38.595Z,2.90
2023-10-06T04:47:44.425Z,3.05
2023-10-06T04:48:49.345Z,2.60
2023-10-06T04:49:54.217Z,2.88
2023-10-06T04:50:57.282Z,3.30
2023-10-06T04:52:01.656Z,3.30
2023-10-06T04:53:07.463Z,3.00
2023-10-06T04:54:09.946Z,3.20
2023-10-06T04:55:13.245Z,2.88
2023-10-06T04:56:15.957Z,3.22
2023-10-06T04:57:18.147Z,3.67
2023-10-06T04:58:20.352Z,3.50
2023-10-06T04:59:23.924Z,3.25
2023-10-06T05:00:28.826Z,3.22
2023-10-06T05:01:32.253Z,2.80
2023-10-06T05:02:37.449Z,3.10
2023-10-06T05:03:45.414Z,3.22
2023-10-06T05:04:48.550Z,3.00
2023-10-06T05:05:52.082Z,2.65
2023-10-06T05:06:54.855Z,2.92
2023-10-06T05:07:57.068Z,3.38
2023-10-06T05:08:59.678Z,2.95
2023-10-06T05:10:01.914Z,3.17
2023-10-06T05:11:04.288Z,2.92
2023-10-06T05:12:06.660Z,3.33
2023-10-06T05:13:09.782Z,3.10
2023-10-06T05:14:13.540Z,3.10
2023-10-06T05:15:24.984Z,3.15
2023-10-06T05:16:29.026Z,3.20
2023-10-06T05:17:31.584Z,3.08
2023-10-06T05:18:39.840Z,2.40
2023-10-06T05:19:42.040Z,3.40
2023-10-06T05:20:44.506Z,2.92
2023-10-06T05:21:47.042Z,3.25
2023-10-06T05:22:50.296Z,3.95
2023-10-06T05:23:52.392Z,3.55
2023-10-06T05:24:54.692Z,3.70
2023-10-06T05:26:04.054Z,3.88
2023-10-06T05:28:12.195Z,3.20
2023-10-06T05:29:15.723Z,2.85
2023-10-06T05:30:18.763Z,3.35
2023-10-06T05:31:21.026Z,3.63
2023-10-06T05:32:23.280Z,3.45
2023-10-06T05:33:26.613Z,3.38
2023-10-06T05:34:31.164Z,4.18
2023-10-06T05:35:41.582Z,3.10
2023-10-06T05:36:43.832Z,3.20
2023-10-06T05:37:46.124Z,3.28
2023-10-06T05:38:48.673Z,3.33
2023-10-06T05:39:50.901Z,3.25
2023-10-06T05:40:53.383Z,3.08
2023-10-06T05:41:55.596Z,4.30
2023-10-06T05:42:58.969Z,3.47
2023-10-06T05:44:01.184Z,4.00
2023-10-06T05:45:14.098Z,3.00
2023-10-06T05:46:16.412Z,3.22
2023-10-06T05:47:18.979Z,3.58
2023-10-06T05:48:24.240Z,3.83
2023-10-06T05:49:26.600Z,3.65
2023-10-06T05:50:28.901Z,3.95
2023-10-06T05:52:40.736Z,4.55
2023-10-06T05:53:45.437Z,4.13
2023-10-06T05:54:48.286Z,4.47
2023-10-06T05:55:53.689Z,5.90
2023-10-06T05:56:55.767Z,4.85
2023-10-06T05:58:01.640Z,4.68
2023-10-06T05:59:04.212Z,4.68
2023-10-06T06:01:20.062Z,3.72
2023-10-06T06:02:26.010Z,3.47
2023-10-06T06:03:28.251Z,3.78
2023-10-06T06:04:32.252Z,3.90
2023-10-06T06:05:37.323Z,3.97
2023-10-06T06:06:41.204Z,3.20
2023-10-06T06:08:49.414Z,3.75
2023-10-06T06:09:51.995Z,3.20
2023-10-06T06:10:54.264Z,3.35
2023-10-06T06:11:56.431Z,3.90
2023-10-06T06:13:01.432Z,3.45
2023-10-06T06:14:16.922Z,3.42
2023-10-06T06:15:19.955Z,3.30
2023-10-06T06:16:22.976Z,4.20
2023-10-06T06:17:25.583Z,3.63
2023-10-06T06:18:29.081Z,3.67
2023-10-06T06:19:31.311Z,3.55
2023-10-06T06:20:33.725Z,3.35
2023-10-06T06:22:38.470Z,3.72
2023-10-06T06:23:40.827Z,3.05
2023-10-06T06:24:43.242Z,3.28
2023-10-06T06:25:45.863Z,3.17
2023-10-06T06:26:48.093Z,3.03
2023-10-06T06:27:51.530Z,3.28
2023-10-06T06:28:54.797Z,3.22
2023-10-06T06:29:57.787Z,3.25
2023-10-06T06:31:05.577Z,3.67
2023-10-06T06:32:13.464Z,3.53
2023-10-06T06:33:20.265Z,3.17
2023-10-06T06:34:23.170Z,3.47
2023-10-06T06:35:25.826Z,2.88
2023-10-06T06:36:28.408Z,3.63
2023-10-06T06:37:30.611Z,2.97
2023-10-06T06:38:40.921Z,2.65
2023-10-06T06:39:45.889Z,2.70
2023-10-06T06:40:48.194Z,3.17
2023-10-06T06:41:50.332Z,3.22
2023-10-06T06:42:52.996Z,3.13
2023-10-06T06:43:59.937Z,3.05
2023-10-06T06:45:02.533Z,3.10
2023-10-06T06:46:04.728Z,3.58
2023-10-06T06:47:07.574Z,3.53
2023-10-06T06:48:18.507Z,3.25
2023-10-06T06:49:20.820Z,3.17
2023-10-06T06:50:23.437Z,2.90
2023-10-06T06:51:29.423Z,2.60
2023-10-06T06:52:31.640Z,3.03
2023-10-06T06:53:33.826Z,3.55
2023-10-06T06:54:38.824Z,3.50
2023-10-06T06:55:44.350Z,2.67
2023-10-06T06:56:48.870Z,2.95
2023-10-06T06:57:56.834Z,2.95
2023-10-06T06:59:03.032Z,2.95
2023-10-06T07:00:11.263Z,2.40
2023-10-06T07:01:17.510Z,2.58
2023-10-06T07:02:21.743Z,2.53
2023-10-06T07:03:23.971Z,2.72
2023-10-06T07:04:29.578Z,3.00
2023-10-06T07:05:31.795Z,3.10
2023-10-06T07:06:34.084Z,3.03
2023-10-06T07:07:36.334Z,2.10
2023-10-06T07:08:38.871Z,3.17
2023-10-06T07:09:41.110Z,2.30
2023-10-06T07:10:48.613Z,2.40
2023-10-06T07:11:51.354Z,2.42
2023-10-06T07:12:54.195Z,2.25
2023-10-06T07:13:57.454Z,2.65
2023-10-06T07:14:59.609Z,2.55
2023-10-06T07:16:02.264Z,2.10
2023-10-06T07:17:05.001Z,2.58
2023-10-06T07:18:07.458Z,2.58
2023-10-06T07:19:11.330Z,2.38
2023-10-06T07:20:18.386Z,2.33
2023-10-06T07:21:24.141Z,3.10
2023-10-06T07:22:31.258Z,2.30
2023-10-06T07:23:36.352Z,2.75
2023-10-06T07:24:39.039Z,2.50
2023-10-06T07:25:41.600Z,2.38
2023-10-06T07:26:44.999Z,2.88
2023-10-06T07:27:49.473Z,2.45
2023-10-06T07:28:55.365Z,3.50
2023-10-06T07:29:59.679Z,2.47
2023-10-06T07:31:02.054Z,3.22
2023-10-06T07:32:04.609Z,2.40
2023-10-06T07:33:09.765Z,2.30
2023-10-06T07:34:13.384Z,2.35
2023-10-06T07:35:19.203Z,3.08
2023-10-06T07:36:21.845Z,2.60
2023-10-06T07:37:24.114Z,2.53
2023-10-06T07:38:27.839Z,2.88
2023-10-06T07:39:30.446Z,2.50
2023-10-06T07:40:32.748Z,2.65
2023-10-06T07:41:34.972Z,2.28
2023-10-06T07:42:37.514Z,2.22
2023-10-06T07:43:39.851Z,2.50
2023-10-06T07:44:42.486Z,2.10
2023-10-06T07:45:45.251Z,2.17
2023-10-06T07:46:48.470Z,2.58
2023-10-06T07:47:50.741Z,3.83
2023-10-06T07:48:53.254Z,2.22
2023-10-06T07:49:56.776Z,2.42
2023-10-06T07:51:07.711Z,2.35
2023-10-06T07:52:09.896Z,2.17
2023-10-06T07:53:12.273Z,3.25
2023-10-06T07:54:14.645Z,2.40
2023-10-06T07:55:18.362Z,2.60
2023-10-06T07:56:20.591Z,2.13
2023-10-06T07:57:23.685Z,2.50
2023-10-06T07:58:26.425Z,2.08
2023-10-06T07:59:28.874Z,2.55
2023-10-06T08:00:40.413Z,2.20
2023-10-06T08:01:42.911Z,2.30
2023-10-06T08:02:45.194Z,2.38
2023-10-06T08:03:47.997Z,2.35
2023-10-06T08:04:52.512Z,2.13
2023-10-06T08:05:54.685Z,2.45
2023-10-06T08:06:57.020Z,2.65
2023-10-06T08:08:00.547Z,2.28
2023-10-06T08:09:07.121Z,2.28
2023-10-06T08:10:15.143Z,2.17
2023-10-06T08:11:17.964Z,2.22
2023-10-06T08:12:21.934Z,2.33
2023-10-06T08:13:24.716Z,2.30
2023-10-06T08:14:26.946Z,2.17
2023-10-06T08:15:29.491Z,2.25
2023-10-06T08:16:32.124Z,2.08
2023-10-06T08:17:34.619Z,2.15
2023-10-06T08:18:37.134Z,1.88
2023-10-06T08:19:39.378Z,2.97
2023-10-06T08:20:41.981Z,2.30
2023-10-06T08:21:44.188Z,2.33
2023-10-06T08:22:48.098Z,1.85
2023-10-06T08:23:50.379Z,2.25
2023-10-06T08:24:54.715Z,2.33
2023-10-06T08:26:00.662Z,2.30
2023-10-06T08:27:03.586Z,2.63
2023-10-06T08:28:08.742Z,2.53
2023-10-06T08:29:11.266Z,2.90
2023-10-06T08:30:18.790Z,2.10
2023-10-06T08:31:21.003Z,2.25
2023-10-06T08:32:23.409Z,2.40
2023-10-06T08:33:29.174Z,2.17
2023-10-06T08:34:32.132Z,2.40
2023-10-06T08:36:39.473Z,1.88
2023-10-06T08:37:42.782Z,2.00
2023-10-06T08:38:48.315Z,2.25
2023-10-06T08:39:50.586Z,2.40
2023-10-06T08:40:57.798Z,2.30
2023-10-06T08:42:06.823Z,2.40
2023-10-06T08:43:10.005Z,2.85
2023-10-06T08:44:14.201Z,2.35
2023-10-06T08:45:24.707Z,2.10
2023-10-06T08:46:28.437Z,2.22
2023-10-06T08:47:38.819Z,2.10
2023-10-06T08:48:48.115Z,2.95
2023-10-06T08:49:52.245Z,2.60
2023-10-06T08:50:56.721Z,2.47
2023-10-06T08:52:01.087Z,1.98
2023-10-06T08:53:11.593Z,2.20
2023-10-06T08:54:15.588Z,2.15
2023-10-06T08:55:21.980Z,2.30
2023-10-06T08:56:24.158Z,2.10
2023-10-06T08:57:30.428Z,2.10
2023-10-06T08:58:32.640Z,2.30
2023-10-06T08:59:35.176Z,2.20
2023-10-06T09:00:38.391Z,1.95
2023-10-06T09:01:40.611Z,2.20
2023-10-06T09:02:46.483Z,2.10
2023-10-06T09:03:51.039Z,2.47
2023-10-06T09:04:56.003Z,2.17
2023-10-06T09:05:58.213Z,2.17
2023-10-06T09:07:10.707Z,2.30
2023-10-06T09:08:16.488Z,2.22
2023-10-06T09:09:28.141Z,1.88
2023-10-06T09:10:32.293Z,2.20
2023-10-06T09:11:42.758Z,2.25
2023-10-06T09:12:47.378Z,1.80
2023-10-06T09:14:06.720Z,2.20
2023-10-06T09:15:16.816Z,2.10
2023-10-06T09:16:19.801Z,1.80
2023-10-06T09:17:33.140Z,2.00
2023-10-06T09:18:36.586Z,2.10
2023-10-06T09:19:50.461Z,1.85
2023-10-06T09:20:53.611Z,2.20
2023-10-06T09:22:08.784Z,2.20
2023-10-06T09:23:11.047Z,1.92
2023-10-06T09:24:21.077Z,1.90
2023-10-06T09:25:23.371Z,1.83
2023-10-06T09:26:32.899Z,2.33
2023-10-06T09:27:38.617Z,1.95
2023-10-06T09:28:55.015Z,1.90
2023-10-06T09:30:08.698Z,1.65
2023-10-06T09:31:12.260Z,1.95
2023-10-06T09:32:25.008Z,2.22
2023-10-06T09:33:50.585Z,1.90
2023-10-06T09:34:55.146Z,2.00
2023-10-06T09:36:12.822Z,1.92
2023-10-06T09:37:21.811Z,2.28
2023-10-06T09:38:27.941Z,2.83
2023-10-06T09:39:34.599Z,1.92
2023-10-06T09:40:43.396Z,1.98
2023-10-06T09:41:49.328Z,1.90
2023-10-06T09:42:52.425Z,2.30
2023-10-06T09:43:55.308Z,2.30
2023-10-06T09:45:20.020Z,1.60
2023-10-06T09:46:24.152Z,1.98
2023-10-06T09:47:26.939Z,2.10
2023-10-06T09:48:35.430Z,2.47
2023-10-06T09:50:44.014Z,2.20
2023-10-06T09:51:47.351Z,2.42
2023-10-06T09:52:51.596Z,1.92
2023-10-06T09:53:54.801Z,2.22
2023-10-06T09:56:03.562Z,2.15
2023-10-06T09:57:07.029Z,2.40
2023-10-06T09:58:10.358Z,1.55
2023-10-06T09:59:14.123Z,1.83
2023-10-06T10:00:19.249Z,2.13
2023-10-06T10:01:27.481Z,2.28
2023-10-06T10:02:31.242Z,2.15
2023-10-06T10:03:36.757Z,1.88
2023-10-06T10:04:39.787Z,2.08
2023-10-06T10:05:43.286Z,2.20
2023-10-06T10:06:46.419Z,1.83
2023-10-06T10:08:52.927Z,1.67
2023-10-06T10:11:03.459Z,1.60
2023-10-06T10:12:29.505Z,1.90
2023-10-06T10:13:45.408Z,1.98
2023-10-06T10:15:13.470Z,1.77
2023-10-06T10:16:57.839Z,1.90
2023-10-06T10:18:42.747Z,1.92
2023-10-06T10:19:47.612Z,1.60
2023-10-06T10:20:51.021Z,1.70
2023-10-06T10:21:55.687Z,2.00
2023-10-06T10:22:58.365Z,1.98
2023-10-06T10:25:31.554Z,1.88
2023-10-06T10:26:37.371Z,2.42
2023-10-06T10:27:39.589Z,1.73
2023-10-06T10:28:41.914Z,1.58
2023-10-06T10:29:44.937Z,1.80
2023-10-06T10:32:14.125Z,2.00
2023-10-06T10:33:26.840Z,1.55
2023-10-06T10:34:35.228Z,1.75
2023-10-06T10:35:38.946Z,1.77
2023-10-06T10:36:41.217Z,1.60
2023-10-06T10:38:05.955Z,1.67
2023-10-06T10:39:21.835Z,1.73
2023-10-06T10:40:26.040Z,2.08
2023-10-06T10:41:34.665Z,2.50
2023-10-06T10:42:42.097Z,1.85
2023-10-06T10:43:50.452Z,2.17
2023-10-06T10:45:29.613Z,2.05
2023-10-06T10:46:34.922Z,1.80
2023-10-06T10:47:38.577Z,1.55
2023-10-06T10:48:49.180Z,1.63
2023-10-06T10:49:52.882Z,1.60
2023-10-06T10:50:58.685Z,1.85
2023-10-06T10:52:03.971Z,2.38
2023-10-06T10:53:06.734Z,1.70
2023-10-06T10:54:11.826Z,2.08
2023-10-06T10:55:14.478Z,1.73
2023-10-06T10:56:35.705Z,1.60
2023-10-06T10:57:45.986Z,1.65
2023-10-06T10:58:54.969Z,1.67
2023-10-06T11:00:09.248Z,1.60
2023-10-06T11:01:24.570Z,1.65
2023-10-06T11:02:36.890Z,1.30
2023-10-06T11:03:39.151Z,2.08
2023-10-06T11:04:42.451Z,2.10
2023-10-06T11:05:45.729Z,1.50
2023-10-06T11:06:52.046Z,2.28
2023-10-06T11:08:04.758Z,1.70
2023-10-06T11:09:26.740Z,2.03
2023-10-06T11:10:29.563Z,1.83
2023-10-06T11:11:35.507Z,1.60
2023-10-06T11:12:37.845Z,1.80
2023-10-06T11:13:54.061Z,2.00
2023-10-06T11:15:18.066Z,1.52
2023-10-06T11:16:24.829Z,1.98
2023-10-06T11:17:34.104Z,1.63
2023-10-06T11:18:36.804Z,1.60
2023-10-06T11:19:40.493Z,1.77
2023-10-06T11:20:43.286Z,1.73
2023-10-06T11:21:48.631Z,1.50
2023-10-06T11:23:01.378Z,1.70
2023-10-06T11:24:04.045Z,1.73
2023-10-06T11:25:09.874Z,1.58
2023-10-06T11:26:12.732Z,1.90
2023-10-06T11:27:16.253Z,1.70
2023-10-06T11:28:20.485Z,1.70
2023-10-06T11:29:31.259Z,2.13
2023-10-06T11:30:34.997Z,2.10
2023-10-06T11:31:37.284Z,1.98
2023-10-06T11:32:39.577Z,1.50
2023-10-06T11:34:46.359Z,1.45
2023-10-06T11:35:48.502Z,1.58
2023-10-06T11:36:54.270Z,1.60
2023-10-06T11:37:57.330Z,1.55
2023-10-06T11:40:02.548Z,2.42
2023-10-06T11:41:05.789Z,2.40
2023-10-06T11:42:25.824Z,1.63
2023-10-06T11:43:32.233Z,1.48
2023-10-06T11:44:40.619Z,2.13
2023-10-06T11:45:44.384Z,1.80
2023-10-06T11:46:54.209Z,1.60
2023-10-06T11:47:56.931Z,1.88
2023-10-06T11:50:27.807Z,1.70
2023-10-06T11:51:30.512Z,1.65
2023-10-06T11:52:33.280Z,1.80
2023-10-06T11:54:40.627Z,1.67
2023-10-06T11:55:43.852Z,1.98
2023-10-06T11:56:50.814Z,1.40
2023-10-06T11:57:53.301Z,1.60
2023-10-06T11:58:56.339Z,1.90
2023-10-06T11:59:58.930Z,1.83
2023-10-06T12:01:01.242Z,1.70
2023-10-06T12:02:10.696Z,2.30
2023-10-06T12:03:13.402Z,1.70
2023-10-06T12:04:32.855Z,2.05
2023-10-06T12:05:35.477Z,1.90
2023-10-06T12:07:41.507Z,2.13
2023-10-06T12:08:47.113Z,1.77
2023-10-06T12:09:50.208Z,1.85
2023-10-06T12:10:53.053Z,1.55
2023-10-06T12:11:56.637Z,1.50
2023-10-06T12:12:59.303Z,1.83
2023-10-06T12:14:03.151Z,1.90
2023-10-06T12:15:07.756Z,1.88
2023-10-06T12:16:16.995Z,1.88
2023-10-06T12:17:19.951Z,2.30
2023-10-06T12:18:26.334Z,1.83
2023-10-06T12:19:28.639Z,2.10
2023-10-06T12:20:30.959Z,2.20
2023-10-06T12:22:41.115Z,2.05
2023-10-06T12:23:43.973Z,2.20
2023-10-06T12:24:47.357Z,2.30
2023-10-06T12:25:49.815Z,2.10
2023-10-06T12:26:52.049Z,1.70
2023-10-06T12:27:54.841Z,1.80
2023-10-06T12:30:08.265Z,2.00
2023-10-06T12:31:12.989Z,2.45
2023-10-06T12:32:15.394Z,2.00
2023-10-06T12:33:17.877Z,2.05
2023-10-06T12:34:21.568Z,1.95
2023-10-06T12:35:23.853Z,2.05
2023-10-06T12:36:26.104Z,1.88
2023-10-06T12:37:28.246Z,1.63
2023-10-06T12:39:36.695Z,1.65
2023-10-06T12:40:39.792Z,2.25
2023-10-06T12:41:47.754Z,1.50
2023-10-06T12:42:50.312Z,1.63
2023-10-06T12:43:52.497Z,1.80
2023-10-06T12:44:54.705Z,2.08
2023-10-06T12:45:56.916Z,1.70
2023-10-06T12:47:05.300Z,2.10
2023-10-06T12:48:09.452Z,1.67
2023-10-06T12:49:19.923Z,1.67
2023-10-06T12:50:22.659Z,1.50
2023-10-06T12:51:26.204Z,2.05
2023-10-06T12:52:28.401Z,1.70
2023-10-06T12:53:31.127Z,2.00
2023-10-06T12:55:43.383Z,1.98
2023-10-06T12:56:46.423Z,1.30
2023-10-06T12:57:50.044Z,1.60
2023-10-06T12:58:52.366Z,1.92
2023-10-06T12:59:54.929Z,1.63
2023-10-06T13:00:57.381Z,1.77
2023-10-06T13:01:59.787Z,1.80
2023-10-06T13:03:02.377Z,1.80
2023-10-06T13:04:07.187Z,2.22
2023-10-06T13:05:18.653Z,1.88
2023-10-06T13:06:24.282Z,2.30
2023-10-06T13:07:26.557Z,1.55
2023-10-06T13:08:29.147Z,1.77
2023-10-06T13:09:35.508Z,1.63
2023-10-06T13:10:37.819Z,1.98
2023-10-06T13:11:41.113Z,1.80
2023-10-06T13:12:44.548Z,2.22
2023-10-06T13:13:50.712Z,2.05
2023-10-06T13:14:53.356Z,1.60
2023-10-06T13:15:55.720Z,1.90
2023-10-06T13:16:58.504Z,2.30
2023-10-06T13:18:01.853Z,2.10
2023-10-06T13:19:04.429Z,1.73
2023-10-06T13:20:09.570Z,1.70
2023-10-06T13:21:13.408Z,1.98
2023-10-06T13:22:15.635Z,1.58
2023-10-06T13:23:17.827Z,1.70
2023-10-06T13:24:21.288Z,1.67
2023-10-06T13:25:23.963Z,2.08
2023-10-06T13:26:42.157Z,2.10
2023-10-06T13:27:50.018Z,2.03
2023-10-06T13:28:54.909Z,1.40
2023-10-06T13:29:57.511Z,1.48
2023-10-06T13:31:00.573Z,2.10
2023-10-06T13:32:02.971Z,1.75
2023-10-06T13:33:05.668Z,1.80
2023-10-06T13:34:09.410Z,1.55
2023-10-06T13:35:17.754Z,1.98
2023-10-06T13:36:20.161Z,2.65
2023-10-06T13:37:24.531Z,2.00
2023-10-06T13:38:27.155Z,1.42
2023-10-06T13:39:29.739Z,1.92
2023-10-06T13:41:33.745Z,1.80
2023-10-06T13:42:36.396Z,2.00
2023-10-06T13:43:38.510Z,1.27
2023-10-06T13:44:40.981Z,1.63
2023-10-06T13:45:46.979Z,1.90
2023-10-06T13:46:50.291Z,1.70
2023-10-06T13:47:55.164Z,1.65
2023-10-06T13:48:58.058Z,2.00
2023-10-06T13:50:00.285Z,1.90
2023-10-06T13:52:06.282Z,2.42
2023-10-06T13:53:09.769Z,1.80
2023-10-06T13:54:12.218Z,1.92
2023-10-06T13:55:15.433Z,1.70
2023-10-06T13:57:19.668Z,1.65
2023-10-06T13:58:25.042Z,1.77
2023-10-06T13:59:28.658Z,2.00
2023-10-06T14:00:30.946Z,1.42
2023-10-06T14:02:38.825Z,1.90
2023-10-06T14:03:41.303Z,1.83
2023-10-06T14:04:43.518Z,2.13
2023-10-06T14:05:53.070Z,2.03
2023-10-06T14:06:57.152Z,1.83
2023-10-06T14:08:05.647Z,1.80
2023-10-06T14:09:07.809Z,1.92
2023-10-06T14:10:14.993Z,1.63
2023-10-06T14:11:18.045Z,1.85
2023-10-06T14:12:21.910Z,2.17
2023-10-06T14:13:34.950Z,1.65
2023-10-06T14:14:48.845Z,2.42
2023-10-06T14:15:53.455Z,1.80
2023-10-06T14:16:58.670Z,2.10
2023-10-06T14:18:00.945Z,2.17
2023-10-06T14:19:03.323Z,1.58
2023-10-06T14:20:12.159Z,1.67
2023-10-06T14:21:14.940Z,2.22
2023-10-06T14:22:22.862Z,2.05
2023-10-06T14:23:29.727Z,2.05
2023-10-06T14:24:36.146Z,1.85
2023-10-06T14:25:40.114Z,1.45
2023-10-06T14:26:44.431Z,2.65
2023-10-06T14:27:46.553Z,2.10
2023-10-06T14:28:50.088Z,1.58
2023-10-06T14:29:52.605Z,1.85
2023-10-06T14:31:02.643Z,1.92
2023-10-06T14:32:19.980Z,1.83
2023-10-06T14:33:25.542Z,1.92
2023-10-06T14:34:51.028Z,1.70
2023-10-06T14:35:59.497Z,1.92
2023-10-06T14:37:02.549Z,1.95
2023-10-06T14:38:36.815Z,1.67
2023-10-06T14:39:57.847Z,1.85
2023-10-06T14:41:20.282Z,1.58
2023-10-06T14:42:41.569Z,1.90
2023-10-06T14:44:03.212Z,1.98
2023-10-06T14:45:24.879Z,1.98
2023-10-06T14:46:27.131Z,2.65
2023-10-06T14:47:29.351Z,2.00
2023-10-06T14:48:31.665Z,2.00
2023-10-06T14:49:34.078Z,1.70
2023-10-06T14:50:36.200Z,2.08
2023-10-06T14:51:38.387Z,1.95
2023-10-06T14:52:42.199Z,1.77
2023-10-06T14:53:46.169Z,1.67
2023-10-06T14:54:48.257Z,1.90
2023-10-06T14:55:50.242Z,2.13
2023-10-06T14:56:53.364Z,1.67
2023-10-06T14:58:00.203Z,1.75
2023-10-06T14:59:02.351Z,2.00
2023-10-06T15:00:07.074Z,2.10
2023-10-06T15:01:13.514Z,2.15
2023-10-06T15:02:16.142Z,1.98
2023-10-06T15:03:21.074Z,1.92
2023-10-06T15:04:24.242Z,2.05
2023-10-06T15:05:27.338Z,1.98